Time;durP1;ratioP1;P1;durP2;ratioP2;P2;SDS_P1;SDS_P2;PMS_P1;PMS_P2;Temp;Humidity;BMP_temperature;BMP_pressure;BME280_temperature;BME280_humidity;BME280_pressure;Samples;Min_cycle;Max_cycle;Signal;HPM_P1;HPM_P2
2022/03/25 00:01:59;;;;;;;72.83;29.77;;;6.70;99.90;;;;;;5005550;28;20216;-80
2022/03/25 00:04:26;;;;;;;64.03;28.57;;;6.70;99.90;;;;;;5003092;28;20685;-81
2022/03/25 00:06:52;;;;;;;62.90;28.43;;;6.60;99.90;;;;;;5008076;28;20223;-79
2022/03/25 00:09:19;;;;;;;67.60;29.40;;;6.60;99.90;;;;;;5001017;28;20213;-80
2022/03/25 00:11:49;;;;;;;68.60;29.27;;;6.60;99.90;;;;;;5002580;28;20288;-79
2022/03/25 00:14:16;;;;;;;65.73;28.37;;;6.60;99.90;;;;;;5003061;28;20211;-80
2022/03/25 00:16:43;;;;;;;70.10;29.17;;;6.50;99.90;;;;;;4987019;28;20306;-79
2022/03/25 00:19:10;;;;;;;64.93;26.73;;;6.50;99.90;;;;;;5001490;28;20768;-80
2022/03/25 00:21:37;;;;;;;64.50;27.67;;;6.40;99.90;;;;;;4999490;28;20352;-81
2022/03/25 00:24:05;;;;;;;71.90;29.43;;;6.40;99.90;;;;;;5001762;28;20214;-80
2022/03/25 00:26:32;;;;;;;70.20;29.63;;;6.40;99.90;;;;;;5004679;28;20326;-80
2022/03/25 00:28:59;;;;;;;72.90;30.33;;;6.30;99.90;;;;;;5002290;28;20215;-81
2022/03/25 00:31:26;;;;;;;69.37;30.00;;;6.20;99.90;;;;;;5007469;28;20264;-79
2022/03/25 00:33:53;;;;;;;77.20;29.67;;;6.20;99.90;;;;;;5002286;28;20239;-80
2022/03/25 00:36:22;;;;;;;68.87;29.40;;;6.20;99.90;;;;;;5004500;28;20338;-80
2022/03/25 00:38:49;;;;;;;73.57;29.67;;;6.20;99.90;;;;;;5002871;28;20679;-78
2022/03/25 00:41:16;;;;;;;72.53;31.27;;;6.20;99.90;;;;;;5003097;28;20233;-80
2022/03/25 00:43:46;;;;;;;70.47;30.10;;;6.10;99.90;;;;;;5002017;28;20207;-80
2022/03/25 00:46:13;;;;;;;68.83;30.87;;;6.20;99.90;;;;;;5007071;28;20227;-79
2022/03/25 00:48:40;;;;;;;73.30;30.17;;;6.00;99.90;;;;;;5002289;28;20256;-79
2022/03/25 00:51:07;;;;;;;75.10;30.30;;;5.50;99.90;;;;;;5003804;28;20560;-79
2022/03/25 00:53:34;;;;;;;80.03;31.00;;;5.60;99.90;;;;;;5008295;28;20210;-79
2022/03/25 00:56:01;;;;;;;73.97;31.20;;;6.00;99.90;;;;;;5008563;28;20215;-80
2022/03/25 00:58:29;;;;;;;79.63;31.07;;;5.90;99.90;;;;;;5005510;28;20215;-80
2022/03/25 01:00:56;;;;;;;79.47;32.90;;;5.80;99.90;;;;;;4997040;28;20339;-80
2022/03/25 01:03:23;;;;;;;78.30;32.73;;;6.00;99.90;;;;;;4981704;28;20202;-80
2022/03/25 01:05:52;;;;;;;81.00;33.03;;;5.80;99.90;;;;;;4987062;28;20244;-80
2022/03/25 01:08:20;;;;;;;77.30;32.90;;;5.70;99.90;;;;;;4984120;28;20203;-79
2022/03/25 01:10:47;;;;;;;83.47;33.87;;;5.70;99.90;;;;;;5002988;28;20243;-79
2022/03/25 01:13:14;;;;;;;81.40;34.37;;;5.70;99.90;;;;;;5002791;28;20253;-79
2022/03/25 01:15:41;;;;;;;75.50;31.87;;;5.70;99.90;;;;;;5015694;28;20234;-79
2022/03/25 01:18:08;;;;;;;84.73;34.40;;;5.60;99.90;;;;;;4992306;28;20219;-78
2022/03/25 01:20:35;;;;;;;85.03;35.00;;;6.00;99.90;;;;;;4998002;28;20318;-79
2022/03/25 01:23:03;;;;;;;84.00;34.93;;;5.60;99.90;;;;;;5008222;28;20303;-79
2022/03/25 01:25:30;;;;;;;84.87;33.93;;;5.50;99.90;;;;;;5005924;28;20656;-79
2022/03/25 01:27:57;;;;;;;87.80;35.10;;;;;;;;;;5008550;28;20246;-79
2022/03/25 01:30:24;;;;;;;83.77;33.90;;;5.50;99.90;;;;;;5006095;28;20355;-79
2022/03/25 01:32:51;;;;;;;83.60;33.97;;;5.40;99.90;;;;;;5005955;28;20272;-79
2022/03/25 01:35:22;;;;;;;87.77;34.80;;;5.40;99.90;;;;;;5005981;28;20348;-79
2022/03/25 01:37:49;;;;;;;86.93;35.27;;;5.40;99.90;;;;;;5006321;28;20217;-79
2022/03/25 01:40:16;;;;;;;91.67;35.73;;;5.30;99.90;;;;;;5004593;28;20696;-79
2022/03/25 01:42:43;;;;;;;88.10;35.30;;;5.30;99.90;;;;;;5006081;28;20635;-79
2022/03/25 01:45:11;;;;;;;99.27;38.83;;;5.30;99.90;;;;;;5010542;28;20228;-80
2022/03/25 01:47:39;;;;;;;97.90;39.10;;;5.30;99.90;;;;;;5003198;28;20292;-80
2022/03/25 01:50:19;;;;;;;87.53;36.73;;;5.20;99.90;;;;;;5005989;28;20225;-78
2022/03/25 01:52:50;;;;;;;87.10;35.67;;;5.20;99.90;;;;;;5009420;28;20232;-78
2022/03/25 01:55:21;;;;;;;99.97;39.30;;;5.10;99.90;;;;;;5009731;28;20210;-80
2022/03/25 01:57:50;;;;;;;100.10;38.70;;;5.10;99.90;;;;;;5008896;28;20219;-79
2022/03/25 02:00:18;;;;;;;96.47;38.03;;;5.10;99.90;;;;;;5002627;28;20234;-79
2022/03/25 02:02:46;;;;;;;99.33;38.27;;;5.10;99.90;;;;;;4998423;28;20613;-78
2022/03/25 02:05:13;;;;;;;94.40;38.63;;;4.90;99.90;;;;;;5005719;28;20314;-79
2022/03/25 02:07:40;;;;;;;102.17;39.50;;;5.00;99.90;;;;;;5004064;28;20343;-79
2022/03/25 02:10:08;;;;;;;100.33;36.07;;;5.00;99.90;;;;;;5017198;28;20679;-80
2022/03/25 02:12:38;;;;;;;97.27;39.27;;;4.90;99.90;;;;;;5005530;28;20204;-78
2022/03/25 02:15:08;;;;;;;101.23;38.73;;;4.90;99.90;;;;;;4998816;28;20223;-79
2022/03/25 02:17:35;;;;;;;101.90;40.80;;;4.90;99.90;;;;;;5005841;28;20234;-79
2022/03/25 02:20:07;;;;;;;109.90;40.73;;;4.90;99.90;;;;;;5006795;28;20648;-80
2022/03/25 02:22:36;;;;;;;114.07;40.87;;;4.80;99.90;;;;;;5004154;28;20719;-79
2022/03/25 02:25:08;;;;;;;110.13;42.80;;;4.80;99.90;;;;;;4993211;28;20208;-80
2022/03/25 02:27:38;;;;;;;105.43;40.87;;;4.80;99.90;;;;;;5010111;28;20223;-80
2022/03/25 02:30:07;;;;;;;104.90;42.80;;;4.70;99.90;;;;;;5002768;28;20241;-79
2022/03/25 02:32:35;;;;;;;107.00;40.83;;;4.70;99.90;;;;;;5003860;28;20268;-78
2022/03/25 02:35:03;;;;;;;111.30;43.03;;;4.70;99.90;;;;;;5008173;28;20278;-78
2022/03/25 02:37:29;;;;;;;124.40;44.80;;;4.70;99.90;;;;;;5006411;28;20203;-78
2022/03/25 02:39:56;;;;;;;115.37;44.07;;;4.70;99.90;;;;;;5011575;28;20648;-78
2022/03/25 02:42:23;;;;;;;122.70;44.10;;;4.70;99.90;;;;;;5007043;28;20241;-79
2022/03/25 02:44:50;;;;;;;111.63;43.10;;;4.60;99.90;;;;;;5007097;28;20557;-79
2022/03/25 02:47:17;;;;;;;125.67;46.13;;;4.60;99.90;;;;;;5003787;28;20961;-79
2022/03/25 02:49:44;;;;;;;114.77;43.93;;;4.60;99.90;;;;;;5005489;28;20257;-79
2022/03/25 02:52:11;;;;;;;135.90;46.60;;;4.50;99.90;;;;;;5008592;28;20207;-79
2022/03/25 02:54:37;;;;;;;120.87;46.07;;;4.50;99.90;;;;;;5007060;28;20725;-78
2022/03/25 02:57:05;;;;;;;129.27;46.83;;;4.50;99.90;;;;;;5004030;28;20309;-79
2022/03/25 02:59:32;;;;;;;117.90;44.63;;;4.50;99.90;;;;;;5003251;28;20346;-79
2022/03/25 03:01:59;;;;;;;115.30;45.27;;;4.50;99.90;;;;;;4999627;28;20575;-78
2022/03/25 03:04:27;;;;;;;130.40;46.97;;;4.40;99.90;;;;;;5001306;28;20763;-80
2022/03/25 03:06:54;;;;;;;138.57;48.53;;;4.40;99.90;;;;;;5004525;28;20797;-79
2022/03/25 03:09:21;;;;;;;139.87;49.13;;;4.40;99.90;;;;;;5006120;28;20302;-80
2022/03/25 03:11:47;;;;;;;131.67;48.40;;;4.40;99.90;;;;;;5001078;28;20231;-79
2022/03/25 03:14:15;;;;;;;129.23;47.83;;;4.40;99.90;;;;;;4989419;28;20278;-78
2022/03/25 03:16:42;;;;;;;131.53;48.33;;;4.40;99.90;;;;;;5004298;28;20247;-79
2022/03/25 03:19:09;;;;;;;128.37;46.57;;;4.40;99.90;;;;;;4997563;28;20218;-80
2022/03/25 03:21:35;;;;;;;140.10;50.87;;;4.40;99.90;;;;;;5004391;28;20320;-80
2022/03/25 03:24:02;;;;;;;138.70;48.77;;;4.30;99.90;;;;;;4985645;28;20925;-80
2022/03/25 03:26:29;;;;;;;138.53;51.23;;;4.30;99.90;;;;;;5001464;28;20211;-79
2022/03/25 03:28:56;;;;;;;141.93;50.63;;;4.30;99.90;;;;;;5007851;28;20614;-79
2022/03/25 03:31:23;;;;;;;141.63;49.57;;;4.30;99.90;;;;;;5004492;28;20886;-79
2022/03/25 03:33:49;;;;;;;140.93;52.03;;;4.30;99.90;;;;;;4987454;28;20261;-79
2022/03/25 03:36:16;;;;;;;148.23;53.03;;;4.30;99.90;;;;;;5004177;28;20356;-80
2022/03/25 03:38:43;;;;;;;145.00;53.00;;;4.30;99.90;;;;;;5001509;28;20215;-80
2022/03/25 03:41:10;;;;;;;134.37;48.87;;;4.20;99.90;;;;;;5006585;28;20238;-80
2022/03/25 03:43:36;;;;;;;146.73;50.53;;;4.20;99.90;;;;;;5003291;28;20233;-80
2022/03/25 03:46:05;;;;;;;136.13;49.03;;;4.20;99.90;;;;;;5007232;28;20629;-79
2022/03/25 03:48:32;;;;;;;129.97;47.77;;;4.20;99.90;;;;;;5009907;28;20207;-78
2022/03/25 03:50:58;;;;;;;141.43;50.63;;;4.10;99.90;;;;;;5006689;28;20267;-79
2022/03/25 03:53:25;;;;;;;129.97;47.47;;;4.10;99.90;;;;;;5000586;28;20269;-80
2022/03/25 03:55:52;;;;;;;140.93;48.57;;;3.90;99.90;;;;;;4996710;28;20246;-80
2022/03/25 03:58:22;;;;;;;154.03;53.20;;;4.00;99.90;;;;;;5006997;28;20289;-79
2022/03/25 04:00:50;;;;;;;159.37;52.00;;;3.90;99.90;;;;;;5003710;28;20263;-78
2022/03/25 04:03:17;;;;;;;143.37;50.20;;;3.90;99.90;;;;;;5001443;28;20624;-78
2022/03/25 04:05:44;;;;;;;139.77;49.00;;;3.90;99.90;;;;;;5003980;28;20210;-79
2022/03/25 04:08:14;;;;;;;142.40;47.03;;;3.80;99.90;;;;;;5002450;28;20589;-80
2022/03/25 04:10:41;;;;;;;144.17;50.43;;;3.80;99.90;;;;;;5002230;28;20210;-79
2022/03/25 04:13:08;;;;;;;138.97;50.83;;;3.70;99.90;;;;;;4990355;28;20584;-80
2022/03/25 04:15:35;;;;;;;151.87;51.73;;;3.70;99.90;;;;;;5004322;28;20315;-79
2022/03/25 04:18:02;;;;;;;149.73;51.53;;;3.70;99.90;;;;;;5001535;28;20211;-80
2022/03/25 04:20:29;;;;;;;143.57;51.53;;;3.70;99.90;;;;;;4986755;28;20226;-80
2022/03/25 04:22:55;;;;;;;138.07;46.60;;;3.60;99.90;;;;;;5002802;28;20199;-79
2022/03/25 04:25:22;;;;;;;142.40;49.63;;;3.60;99.90;;;;;;5007360;28;20222;-80
2022/03/25 04:27:57;;;;;;;156.07;52.10;;;3.60;99.90;;;;;;5005397;28;20222;-80
2022/03/25 04:30:32;;;;;;;152.57;50.03;;;3.60;99.90;;;;;;5001985;28;20237;-80
2022/03/25 04:33:00;;;;;;;150.73;52.43;;;3.50;99.90;;;;;;4985429;28;20214;-79
2022/03/25 04:35:28;;;;;;;155.20;52.60;;;3.50;99.90;;;;;;4987746;28;20308;-80
2022/03/25 04:37:55;;;;;;;156.87;54.17;;;3.50;99.90;;;;;;5005537;28;20245;-79
2022/03/25 04:40:24;;;;;;;156.13;52.63;;;3.50;99.90;;;;;;5003936;28;20321;-79
2022/03/25 04:42:52;;;;;;;144.97;51.73;;;3.40;99.90;;;;;;5003954;28;20560;-81
2022/03/25 04:45:21;;;;;;;165.70;52.57;;;3.40;99.90;;;;;;4991617;28;20229;-79
2022/03/25 04:47:47;;;;;;;163.10;53.57;;;3.40;99.90;;;;;;5002156;28;20628;-79
2022/03/25 04:50:15;;;;;;;161.83;53.27;;;3.40;99.90;;;;;;5005611;28;20241;-80
2022/03/25 04:52:42;;;;;;;163.90;53.30;;;3.40;99.90;;;;;;5002562;28;20212;-80
2022/03/25 04:55:15;;;;;;;167.60;55.13;;;3.30;99.90;;;;;;5006926;28;20281;-79
2022/03/25 04:57:43;;;;;;;160.90;52.20;;;3.30;99.90;;;;;;5000873;28;20199;-81
2022/03/25 05:00:10;;;;;;;168.30;54.87;;;3.30;99.90;;;;;;5002860;28;20238;-80
2022/03/25 05:02:37;;;;;;;159.47;51.17;;;3.30;99.90;;;;;;5005773;28;20206;-80
2022/03/25 05:05:05;;;;;;;170.33;55.77;;;3.30;99.90;;;;;;5006792;28;20245;-80
2022/03/25 05:07:33;;;;;;;165.03;55.57;;;3.30;99.90;;;;;;5007649;28;20234;-80
2022/03/25 05:10:02;;;;;;;179.77;58.60;;;3.30;99.90;;;;;;5006097;28;20214;-80
2022/03/25 05:12:33;;;;;;;162.90;54.70;;;3.20;99.90;;;;;;5006298;28;20217;-80
2022/03/25 05:15:00;;;;;;;178.13;59.43;;;3.20;99.90;;;;;;5008358;28;20210;-80
2022/03/25 05:17:27;;;;;;;180.27;57.50;;;3.20;99.90;;;;;;5008973;28;20233;-79
2022/03/25 05:19:57;;;;;;;175.73;55.10;;;3.20;99.90;;;;;;5006251;28;20219;-80
2022/03/25 05:22:25;;;;;;;168.83;54.60;;;3.20;99.90;;;;;;5007193;28;20305;-80
2022/03/25 05:24:52;;;;;;;158.10;55.70;;;3.20;99.90;;;;;;5001851;28;20233;-81
2022/03/25 05:27:19;;;;;;;159.93;53.70;;;3.20;99.90;;;;;;5009361;28;20317;-80
2022/03/25 05:29:46;;;;;;;180.57;58.43;;;3.20;99.90;;;;;;5005750;28;20206;-79
2022/03/25 05:32:13;;;;;;;163.43;55.33;;;3.10;99.90;;;;;;5007735;28;20273;-80
2022/03/25 05:34:40;;;;;;;180.73;59.27;;;3.10;99.90;;;;;;5005638;28;20269;-80
2022/03/25 05:37:07;;;;;;;175.70;55.10;;;3.10;99.90;;;;;;5008182;28;20835;-80
2022/03/25 05:39:33;;;;;;;183.03;57.27;;;3.10;99.90;;;;;;4993406;28;20217;-80
2022/03/25 05:42:00;;;;;;;178.77;57.77;;;3.10;99.90;;;;;;5003354;28;20374;-81
2022/03/25 05:44:27;;;;;;;176.43;58.60;;;3.10;99.90;;;;;;5008564;28;20271;-80
2022/03/25 05:46:54;;;;;;;193.47;57.00;;;3.10;99.90;;;;;;5002223;28;20285;-80
2022/03/25 05:49:21;;;;;;;172.03;57.47;;;3.10;99.90;;;;;;5005342;28;20239;-79
2022/03/25 05:51:48;;;;;;;197.90;59.90;;;3.10;99.90;;;;;;5010259;28;20308;-80
2022/03/25 05:54:15;;;;;;;199.67;58.27;;;3.20;99.90;;;;;;4998630;28;20238;-80
2022/03/25 05:56:42;;;;;;;175.63;58.57;;;3.20;99.90;;;;;;5005996;28;20227;-80
2022/03/25 05:59:08;;;;;;;187.60;59.30;;;3.20;99.90;;;;;;5009133;28;20757;-81
2022/03/25 06:01:36;;;;;;;181.83;58.37;;;3.20;99.90;;;;;;5008693;28;20341;-80
2022/03/25 06:04:03;;;;;;;179.77;59.43;;;3.30;99.90;;;;;;5012773;28;20213;-80
2022/03/25 06:06:29;;;;;;;186.07;59.33;;;3.30;99.90;;;;;;5009291;28;20379;-79
2022/03/25 06:08:56;;;;;;;192.43;59.27;;;3.30;99.90;;;;;;5005147;28;20211;-80
2022/03/25 06:11:23;;;;;;;213.53;62.50;;;3.40;99.90;;;;;;5005456;28;20235;-80
2022/03/25 06:13:49;;;;;;;178.77;58.83;;;3.40;99.90;;;;;;5003325;28;20274;-78
2022/03/25 06:16:17;;;;;;;201.67;62.53;;;3.50;99.90;;;;;;5007435;28;20338;-79
2022/03/25 06:18:44;;;;;;;182.80;61.63;;;3.50;99.90;;;;;;5008746;28;20226;-79
2022/03/25 06:21:10;;;;;;;213.60;67.17;;;3.60;99.90;;;;;;5005595;28;20247;-80
2022/03/25 06:23:37;;;;;;;192.03;62.23;;;3.70;99.90;;;;;;4990064;28;20293;-78
2022/03/25 06:26:05;;;;;;;183.40;59.33;;;3.70;99.90;;;;;;5008644;28;20229;-78
2022/03/25 06:28:32;;;;;;;184.53;59.47;;;3.90;99.90;;;;;;5006645;28;20293;-77
2022/03/25 06:30:58;;;;;;;193.63;62.47;;;3.90;99.90;;;;;;5011058;28;20519;-80
2022/03/25 06:33:25;;;;;;;170.20;59.90;;;3.90;99.90;;;;;;5003368;28;20293;-80
2022/03/25 06:35:52;;;;;;;178.43;60.53;;;4.00;99.90;;;;;;5011348;28;20245;-80
2022/03/25 06:38:19;;;;;;;169.03;60.40;;;4.10;99.90;;;;;;5009400;28;20246;-79
2022/03/25 06:40:51;;;;;;;151.87;54.47;;;4.10;99.90;;;;;;5008096;28;20342;-78
2022/03/25 06:43:18;;;;;;;165.70;57.33;;;4.20;99.90;;;;;;5006373;28;20306;-78
2022/03/25 06:45:44;;;;;;;156.17;55.07;;;4.30;99.90;;;;;;5007624;28;20229;-80
2022/03/25 06:48:11;;;;;;;159.93;54.67;;;4.20;99.90;;;;;;5005652;28;20306;-77
2022/03/25 06:50:38;;;;;;;159.57;54.37;;;4.40;99.90;;;;;;4988976;28;20211;-79
2022/03/25 06:53:06;;;;;;;152.23;54.90;;;4.50;99.90;;;;;;5001179;28;20242;-79
2022/03/25 06:55:33;;;;;;;158.13;54.60;;;4.50;99.90;;;;;;5003294;28;20372;-78
2022/03/25 06:58:01;;;;;;;165.80;56.37;;;4.60;99.90;;;;;;5006573;28;20664;-79
2022/03/25 07:00:28;;;;;;;168.57;59.73;;;4.80;99.90;;;;;;5001293;28;20277;-78
2022/03/25 07:02:55;;;;;;;152.43;55.63;;;5.20;99.90;;;;;;5016934;28;20219;-78
2022/03/25 07:05:24;;;;;;;133.60;51.47;;;5.90;99.90;;;;;;5007341;28;20226;-79
2022/03/25 07:07:51;;;;;;;102.43;45.90;;;6.60;99.90;;;;;;5007013;28;20214;-79
2022/03/25 07:10:23;;;;;;;118.33;46.70;;;7.30;99.90;;;;;;5005750;28;20733;-78
2022/03/25 07:12:54;;;;;;;104.47;44.57;;;;;;;;;;5006255;28;20234;-79
2022/03/25 07:15:21;;;;;;;101.17;44.57;;;8.50;99.90;;;;;;5008314;28;20616;-77
2022/03/25 07:17:48;;;;;;;93.57;43.00;;;9.10;99.90;;;;;;5000050;28;20578;-79
2022/03/25 07:20:17;;;;;;;90.23;41.93;;;9.80;99.90;;;;;;5006739;28;20242;-79
2022/03/25 07:22:48;;;;;;;94.80;44.47;;;10.30;99.90;;;;;;4997493;28;20248;-78
2022/03/25 07:25:16;;;;;;;86.67;44.53;;;10.80;99.90;;;;;;5004497;28;20304;-77
2022/03/25 07:27:44;;;;;;;91.57;44.50;;;11.20;99.90;;;;;;5001335;28;20342;-77
2022/03/25 07:30:12;;;;;;;88.93;43.63;;;11.60;99.90;;;;;;5003070;28;20742;-80
2022/03/25 07:32:40;;;;;;;86.60;43.63;;;11.90;99.90;;;;;;5004984;28;20353;-79
2022/03/25 07:35:09;;;;;;;90.30;43.77;;;12.20;99.90;;;;;;5003137;28;20319;-80
2022/03/25 07:37:37;;;;;;;85.37;43.43;;;12.50;99.90;;;;;;5009847;28;20313;-80
2022/03/25 07:40:07;;;;;;;92.00;44.67;;;13.10;99.90;;;;;;5007417;28;20340;-80
2022/03/25 07:42:34;;;;;;;82.77;44.30;;;13.20;99.90;;;;;;5008888;28;20230;-81
2022/03/25 07:45:01;;;;;;;78.27;41.87;;;13.50;99.90;;;;;;5008240;28;20965;-82
2022/03/25 07:47:32;;;;;;;79.03;42.83;;;13.70;99.90;;;;;;5006390;28;20246;-81
2022/03/25 07:50:00;;;;;;;81.03;42.60;;;13.90;99.90;;;;;;4985050;28;20600;-82
2022/03/25 07:52:26;;;;;;;87.87;45.07;;;14.10;99.90;;;;;;5005622;28;20203;-80
2022/03/25 07:54:58;;;;;;;83.67;44.27;;;14.20;99.90;;;;;;5016004;28;20606;-82
2022/03/25 07:57:25;;;;;;;81.23;42.90;;;14.20;99.90;;;;;;5005622;28;20298;-81
2022/03/25 07:59:52;;;;;;;77.00;42.93;;;14.20;99.90;;;;;;5006979;28;20217;-80
2022/03/25 08:02:18;;;;;;;81.93;42.83;;;14.30;99.90;;;;;;5001164;28;20249;-83
2022/03/25 08:04:45;;;;;;;77.57;41.37;;;14.20;99.90;;;;;;5005162;28;20324;-81
2022/03/25 08:07:12;;;;;;;81.67;42.67;;;14.30;99.90;;;;;;5002878;28;20309;-81
2022/03/25 08:09:39;;;;;;;78.60;42.50;;;14.40;99.90;;;;;;5006707;28;20290;-81
2022/03/25 08:12:07;;;;;;;80.57;42.13;;;14.40;99.90;;;;;;5012402;28;20310;-79
2022/03/25 08:14:34;;;;;;;79.73;43.40;;;14.40;99.90;;;;;;5009970;28;20241;-81
2022/03/25 08:17:02;;;;;;;80.87;41.93;;;14.50;99.90;;;;;;4988086;28;20281;-79
2022/03/25 08:19:32;;;;;;;80.17;42.37;;;14.60;99.90;;;;;;5007829;28;20202;-81
2022/03/25 08:21:58;;;;;;;83.47;42.80;;;14.70;99.90;;;;;;5011643;28;20873;-80
2022/03/25 08:29:56;;;;;;;76.40;40.93;;;14.90;99.90;;;;;;5010359;28;20345;-82
2022/03/25 08:32:25;;;;;;;72.07;40.72;;;14.90;99.90;;;;;;5003689;28;20306;-80
2022/03/25 08:34:51;;;;;;;73.65;41.17;;;14.90;99.90;;;;;;4989353;28;20313;-82
2022/03/25 08:37:25;;;;;;;76.00;40.97;;;15.10;99.90;;;;;;5001928;28;20222;-80
2022/03/25 08:39:51;;;;;;;71.97;40.00;;;15.40;99.90;;;;;;5003798;28;20253;-80
2022/03/25 08:42:18;;;;;;;73.13;40.23;;;15.50;99.90;;;;;;5003159;28;20273;-81
2022/03/25 08:44:46;;;;;;;71.72;40.13;;;15.60;99.90;;;;;;5004387;28;20314;-80
2022/03/25 08:47:13;;;;;;;76.68;39.28;;;15.80;99.90;;;;;;5000579;28;20695;-81
2022/03/25 08:49:40;;;;;;;66.45;38.72;;;15.70;99.90;;;;;;5000772;28;20428;-81
2022/03/25 08:52:06;;;;;;;69.45;39.53;;;15.80;99.90;;;;;;5000051;28;20203;-80
2022/03/25 08:54:33;;;;;;;71.35;39.47;;;15.80;99.90;;;;;;5006674;28;20230;-81
2022/03/25 08:57:02;;;;;;;73.47;39.78;;;15.70;99.90;;;;;;5000205;28;20253;-80
2022/03/25 08:59:29;;;;;;;72.35;38.10;;;15.80;99.90;;;;;;5005413;28;20252;-81
2022/03/25 09:01:56;;;;;;;67.03;37.80;;;15.80;99.90;;;;;;4998871;28;20237;-79
2022/03/25 09:04:23;;;;;;;68.57;36.20;;;15.80;99.90;;;;;;5004438;28;20252;-81
2022/03/25 09:06:50;;;;;;;66.35;37.33;;;16.00;99.90;;;;;;5002873;28;20204;-80
2022/03/25 09:09:16;;;;;;;60.10;35.08;;;16.10;99.90;;;;;;5000854;28;20630;-80
2022/03/25 09:11:43;;;;;;;67.20;36.60;;;16.20;99.90;;;;;;4999084;28;20230;-81
2022/03/25 09:14:11;;;;;;;66.93;35.78;;;16.10;99.90;;;;;;5002170;28;20584;-80
2022/03/25 09:16:38;;;;;;;61.00;34.08;;;15.90;99.90;;;;;;4999490;28;20298;-79
2022/03/25 09:19:05;;;;;;;67.15;36.20;;;15.70;99.90;;;;;;5001462;28;20210;-80
2022/03/25 09:21:32;;;;;;;66.73;35.53;;;15.70;99.90;;;;;;5004253;28;20222;-80
2022/03/25 09:23:58;;;;;;;65.72;36.05;;;15.80;99.90;;;;;;4999403;28;20282;-80
2022/03/25 09:26:25;;;;;;;68.40;36.97;;;15.90;99.90;;;;;;5007678;28;20334;-80
2022/03/25 09:28:52;;;;;;;66.28;35.03;;;15.90;99.90;;;;;;5010196;28;20213;-79
2022/03/25 09:31:19;;;;;;;65.63;36.13;;;15.90;99.90;;;;;;5009000;28;20310;-80
2022/03/25 09:36:51;;;;;;;65.55;36.08;;;16.20;99.90;;;;;;4984961;28;20199;-80
2022/03/25 09:39:18;;;;;;;62.93;35.37;;;16.20;99.90;;;;;;4986521;28;20236;-81
2022/03/25 09:41:46;;;;;;;71.72;37.38;;;16.20;99.90;;;;;;4987927;28;20313;-79
2022/03/25 09:44:17;;;;;;;61.33;35.03;;;16.30;99.90;;;;;;4984966;28;20306;-81
2022/03/25 09:46:44;;;;;;;63.92;34.45;;;16.40;99.90;;;;;;4990845;28;20234;-80
2022/03/25 09:49:12;;;;;;;60.17;33.60;;;16.40;99.90;;;;;;4991195;28;20671;-80
2022/03/25 09:51:41;;;;;;;62.93;35.03;;;16.40;99.90;;;;;;4989210;28;20693;-81
2022/03/25 09:54:11;;;;;;;64.85;34.60;;;16.20;99.90;;;;;;4992143;28;20224;-79
2022/03/25 09:56:38;;;;;;;60.33;33.87;;;16.10;99.90;;;;;;4967199;28;20254;-80
2022/03/25 09:59:06;;;;;;;63.50;33.90;;;16.00;99.90;;;;;;4991580;28;20740;-80
2022/03/25 10:01:34;;;;;;;63.80;33.90;;;15.90;99.90;;;;;;4988852;28;20223;-81
2022/03/25 10:04:04;;;;;;;65.80;35.10;;;15.80;99.90;;;;;;4986124;28;20264;-80
2022/03/25 10:06:44;;;;;;;58.67;32.53;;;15.90;99.90;;;;;;4990334;28;20655;-80
2022/03/25 10:09:21;;;;;;;62.30;33.90;;;15.80;99.90;;;;;;4986503;28;20294;-81
2022/03/25 10:11:47;;;;;;;62.33;34.97;;;15.90;99.90;;;;;;4989503;28;20290;-81
2022/03/25 10:14:20;;;;;;;67.00;35.17;;;15.90;99.90;;;;;;4990956;28;20199;-81
2022/03/25 10:16:52;;;;;;;62.37;33.73;;;15.90;99.90;;;;;;4993283;28;20227;-83
2022/03/25 10:19:21;;;;;;;62.53;34.13;;;15.90;99.90;;;;;;4970542;28;20203;-81
2022/03/25 10:21:54;;;;;;;56.47;32.63;;;16.00;99.90;;;;;;4985576;28;20700;-81
2022/03/25 10:24:46;;;;;;;60.87;32.87;;;15.90;99.90;;;;;;4988974;28;20211;-81
2022/03/25 10:27:18;;;;;;;60.70;32.23;;;15.90;99.90;;;;;;4991157;28;20207;-81
2022/03/25 10:29:47;;;;;;;60.73;33.00;;;15.70;99.90;;;;;;4992402;28;20310;-80
2022/03/25 10:32:18;;;;;;;61.37;32.27;;;15.70;99.90;;;;;;4975284;28;20621;-82
2022/03/25 10:35:01;;;;;;;59.63;32.33;;;15.70;99.90;;;;;;4975238;28;20218;-81
2022/03/25 10:37:28;;;;;;;64.67;34.20;;;15.60;99.90;;;;;;4995705;28;20744;-78
2022/03/25 10:39:56;;;;;;;62.53;33.37;;;15.60;99.90;;;;;;4990617;28;20292;-81
2022/03/25 10:42:23;;;;;;;65.00;34.07;;;15.60;99.90;;;;;;4992665;28;20254;-81
2022/03/25 10:44:49;;;;;;;60.60;32.67;;;15.60;99.90;;;;;;4989798;28;20314;-82
2022/03/25 10:47:19;;;;;;;63.20;33.70;;;15.60;99.90;;;;;;4985450;28;20243;-81
2022/03/25 10:49:48;;;;;;;59.37;33.57;;;15.50;99.90;;;;;;4986571;28;20310;-80
2022/03/25 10:52:32;;;;;;;61.23;33.53;;;15.50;99.90;;;;;;4974763;28;20213;-81
2022/03/25 10:55:14;;;;;;;66.93;33.73;;;15.40;99.90;;;;;;4992895;28;20250;-82
2022/03/25 10:57:51;;;;;;;62.50;34.43;;;15.40;99.90;;;;;;4993285;28;20655;-82
2022/03/25 11:00:19;;;;;;;63.23;34.97;;;15.40;99.90;;;;;;4995138;28;20268;-81
2022/03/25 11:02:46;;;;;;;59.37;33.27;;;15.50;99.90;;;;;;4977414;28;20754;-81
2022/03/25 11:05:14;;;;;;;63.63;32.57;;;15.70;99.90;;;;;;5006108;28;20200;-82
2022/03/25 11:07:46;;;;;;;64.17;33.13;;;15.80;99.90;;;;;;4996232;28;20284;-83
2022/03/25 11:10:14;;;;;;;64.87;33.53;;;15.80;99.90;;;;;;4992625;28;20315;-83
2022/03/25 11:12:46;;;;;;;63.93;33.43;;;15.80;99.90;;;;;;4997052;28;20266;-82
2022/03/25 11:15:19;;;;;;;61.73;32.77;;;15.90;99.90;;;;;;5004439;28;20211;-80
2022/03/25 11:17:46;;;;;;;59.57;31.63;;;15.90;99.90;;;;;;5003298;28;20225;-82
2022/03/25 11:20:16;;;;;;;65.97;33.83;;;16.00;99.90;;;;;;4997513;28;20195;-82
2022/03/25 11:23:08;;;;;;;59.37;33.20;;;16.10;99.90;;;;;;4993957;28;20277;-82
2022/03/25 11:25:45;;;;;;;62.83;34.33;;;16.30;99.90;;;;;;4996872;28;20249;-80
2022/03/25 11:28:25;;;;;;;60.20;32.97;;;16.30;99.90;;;;;;4993195;28;20285;-81
2022/03/25 11:31:01;;;;;;;60.80;33.50;;;16.40;99.90;;;;;;4993844;28;20255;-82
2022/03/25 11:33:28;;;;;;;64.23;32.77;;;16.50;99.90;;;;;;4994839;28;20218;-82
2022/03/25 11:36:18;;;;;;;58.50;32.80;;;16.50;99.90;;;;;;4999859;28;20527;-82
2022/03/25 11:38:45;;;;;;;62.87;33.53;;;16.60;99.90;;;;;;4998875;28;20203;-81
2022/03/25 11:41:26;;;;;;;59.03;32.93;;;16.60;99.90;;;;;;5004423;28;20298;-80
2022/03/25 11:44:20;;;;;;;60.93;33.43;;;16.70;99.90;;;;;;5000578;28;20748;-82
2022/03/25 11:46:59;;;;;;;61.37;32.80;;;16.60;99.90;;;;;;5006431;28;20232;-80
2022/03/25 11:49:36;;;;;;;59.83;32.53;;;16.60;99.90;;;;;;5001097;28;20205;-80
2022/03/25 11:52:27;;;;;;;67.73;33.73;;;16.50;99.90;;;;;;4999038;28;20206;-80
2022/03/25 11:54:55;;;;;;;62.93;34.10;;;16.50;99.90;;;;;;5005794;28;20256;-81
2022/03/25 11:57:30;;;;;;;65.30;34.17;;;16.50;99.90;;;;;;5000479;28;20203;-82
2022/03/25 12:00:00;;;;;;;61.87;34.10;;;16.70;99.90;;;;;;4999478;28;20210;-82
2022/03/25 12:02:32;;;;;;;66.00;36.10;;;16.90;99.90;;;;;;5005610;28;20329;-82
2022/03/25 12:05:02;;;;;;;67.17;34.00;;;17.00;99.90;;;;;;5000481;28;20206;-82
2022/03/25 12:07:29;;;;;;;65.90;34.87;;;17.10;99.90;;;;;;5001552;28;20619;-82
2022/03/25 12:09:57;;;;;;;61.97;35.10;;;17.30;99.90;;;;;;4985527;28;20199;-83
2022/03/25 12:12:54;;;;;;;65.27;35.20;;;17.50;99.90;;;;;;5002752;28;20591;-81
2022/03/25 12:15:38;;;;;;;65.53;33.13;;;17.60;99.90;;;;;;4985571;28;20265;-81
2022/03/25 12:18:40;;;;;;;63.55;34.00;;;17.70;99.90;;;;;;5004490;28;20561;-81
2022/03/25 12:21:25;;;;;;;56.65;32.50;;;17.90;99.90;;;;;;4989739;28;20279;-82
2022/03/25 12:24:00;;;;;;;61.25;34.70;;;18.00;99.90;;;;;;5003479;28;20587;-82
2022/03/25 12:26:36;;;;;;;64.10;33.42;;;18.00;99.90;;;;;;5004158;28;20242;-80
2022/03/25 12:29:06;;;;;;;68.13;32.97;;;18.00;99.90;;;;;;5004497;28;20210;-81
2022/03/25 12:31:34;;;;;;;62.13;33.20;;;18.00;99.90;;;;;;5008734;28;20312;-82
2022/03/25 12:34:03;;;;;;;61.50;34.67;;;18.20;99.90;;;;;;5001732;28;20535;-83
2022/03/25 12:36:53;;;;;;;63.83;33.10;;;18.20;99.90;;;;;;4996882;28;20238;-82
2022/03/25 12:39:19;;;;;;;63.42;33.92;;;18.20;99.90;;;;;;5009769;28;20318;-83
2022/03/25 12:41:48;;;;;;;63.42;34.25;;;18.30;99.90;;;;;;5013129;28;20214;-82
2022/03/25 12:44:28;;;;;;;63.92;34.35;;;18.40;99.90;;;;;;5012227;28;20217;-81
2022/03/25 12:47:00;;;;;;;60.15;33.58;;;18.50;99.90;;;;;;4984171;28;20210;-84